Time;durP1;ratioP1;P1;durP2;ratioP2;P2;SDS_P1;SDS_P2;PMS_P1;PMS_P2;Temp;Humidity;BMP_temperature;BMP_pressure;BME280_temperature;BME280_humidity;BME280_pressure;Samples;Min_cycle;Max_cycle;Signal;HPM_P1;HPM_P2
2022/08/22 00:01:01;;;;;;;9.75;5.70;;;;;;;17.19;75.90;101438.06;5220874;28;20088;-70
2022/08/22 00:03:57;;;;;;;9.07;5.78;;;;;;;17.23;75.79;101434.44;5220750;28;20040;-69
2022/08/22 00:06:47;;;;;;;11.18;5.88;;;;;;;17.09;76.80;101447.16;5220225;28;20026;-69
2022/08/22 00:09:47;;;;;;;9.48;5.68;;;;;;;17.17;76.63;101441.66;5221042;28;20369;-69
2022/08/22 00:12:39;;;;;;;9.88;6.00;;;;;;;17.05;76.95;101442.88;5184945;28;20073;-70
2022/08/22 00:15:21;;;;;;;10.52;6.47;;;;;;;16.97;77.27;101442.22;5202613;28;20050;-70
2022/08/22 00:18:16;;;;;;;15.95;7.68;;;;;;;17.04;77.54;101446.44;5220412;28;20029;-70
2022/08/22 00:20:56;;;;;;;12.20;6.30;;;;;;;16.83;78.06;101440.84;5219928;28;20041;-70
2022/08/22 00:23:33;;;;;;;8.00;5.15;;;;;;;16.84;77.63;101436.41;5220122;28;20121;-69
2022/08/22 00:26:16;;;;;;;11.88;5.60;;;;;;;16.97;77.87;101440.47;5203165;28;20029;-68
2022/08/22 00:29:22;;;;;;;10.95;6.07;;;;;;;17.11;76.93;101433.03;5220375;28;20097;-69
2022/08/22 00:32:13;;;;;;;14.18;6.43;;;;;;;16.92;78.04;101442.34;5219983;28;20041;-69
2022/08/22 00:34:57;;;;;;;10.57;5.60;;;;;;;16.80;78.30;101440.06;5220177;28;20026;-69
2022/08/22 00:37:38;;;;;;;13.77;5.90;;;;;;;16.97;78.13;101440.47;5219877;28;20120;-69
2022/08/22 00:40:28;;;;;;;10.15;5.53;;;;;;;16.88;78.54;101433.69;5220167;28;20100;-69
2022/08/22 00:43:08;;;;;;;11.95;5.35;;;;;;;16.94;78.32;101437.94;5220642;28;20030;-69
2022/08/22 00:46:12;;;;;;;9.65;5.63;;;;;;;16.93;78.16;101436.19;5219933;28;20034;-69
2022/08/22 00:48:49;;;;;;;;;;;;;;;17.09;76.38;101436.59;5220118;28;20042;-69
2022/08/22 00:51:53;;;;;;;12.05;5.60;;;;;;;16.91;78.40;101435.38;5219730;28;20019;-70
2022/08/22 00:55:00;;;;;;;10.80;5.20;;;;;;;16.87;78.98;101437.25;5220511;28;20087;-70
2022/08/22 00:57:50;;;;;;;12.45;5.05;;;;;;;16.84;78.85;101439.94;5219820;28;20050;-69
2022/08/22 01:00:28;;;;;;;11.05;5.47;;;;;;;16.89;79.37;101447.75;5220197;28;20080;-70
2022/08/22 01:03:21;;;;;;;8.95;5.63;;;;;;;16.81;79.50;101441.75;5219780;28;20066;-70
2022/08/22 01:06:05;;;;;;;;;;;;;;;17.02;77.41;101446.47;5220147;28;20040;-70
2022/08/22 01:09:04;;;;;;;11.82;6.18;;;;;;;16.83;79.17;101445.25;5220253;28;19960;-69
2022/08/22 01:11:50;;;;;;;12.75;6.47;;;;;;;16.65;79.91;101438.72;5220447;28;20034;-69
2022/08/22 01:14:44;;;;;;;8.48;5.70;;;;;;;16.82;79.34;101438.25;5219825;28;20030;-69
2022/08/22 01:17:31;;;;;;;8.45;5.00;;;;;;;16.76;80.06;101437.50;5219854;28;20038;-69
2022/08/22 01:20:26;;;;;;;11.60;5.95;;;;;;;16.82;79.68;101439.09;5219930;28;20084;-69
2022/08/22 01:23:07;;;;;;;11.05;6.30;;;;;;;16.77;79.73;101439.22;5202150;28;20471;-69
2022/08/22 01:25:56;;;;;;;12.95;6.30;;;;;;;16.76;79.60;101434.03;5201859;28;20084;-69
2022/08/22 01:28:30;;;;;;;13.35;5.60;;;;;;;16.77;79.59;101433.94;5219572;28;20058;-69
2022/08/22 01:31:23;;;;;;;9.68;5.28;;;;;;;16.74;79.40;101436.69;5219386;28;20134;-70
2022/08/22 01:34:20;;;;;;;11.18;4.80;;;;;;;16.80;79.05;101434.78;5219715;28;20026;-69
2022/08/22 01:37:12;;;;;;;9.45;5.32;;;;;;;16.59;80.19;101430.06;5222820;28;20026;-70
2022/08/22 01:40:25;;;;;;;11.10;6.13;;;;;;;16.60;79.62;101433.59;5223711;28;20493;-69
2022/08/22 01:43:08;;;;;;;9.68;5.97;;;;;;;16.51;80.42;101431.19;5180139;28;20511;-69
2022/08/22 01:46:01;;;;;;;15.02;6.90;;;;;;;16.34;80.97;101432.53;5180056;28;20460;-69
2022/08/22 01:48:52;;;;;;;14.55;6.80;;;;;;;16.48;80.34;101436.53;5213756;28;20060;-69
2022/08/22 01:51:39;;;;;;;8.90;6.40;;;;;;;16.53;81.29;101430.22;5223322;28;20455;-69
2022/08/22 01:54:33;;;;;;;10.88;6.82;;;;;;;16.50;80.87;101426.84;5222994;28;20088;-70
2022/08/22 01:57:07;;;;;;;16.70;6.85;;;;;;;16.38;80.75;101426.25;5222640;28;20034;-70
2022/08/22 01:59:51;;;;;;;11.73;6.90;;;;;;;16.44;80.94;101427.00;5205351;28;20026;-69
2022/08/22 02:02:34;;;;;;;9.82;7.95;;;;;;;16.48;80.74;101428.66;5222961;28;20045;-68
2022/08/22 02:05:36;;;;;;;11.18;6.35;;;;;;;16.56;80.58;101432.78;5204949;28;20046;-70
2022/08/22 02:08:43;;;;;;;13.93;7.40;;;;;;;16.54;80.56;101428.50;5221426;28;20132;-71
2022/08/22 02:11:42;;;;;;;9.63;6.75;;;;;;;16.48;80.88;101424.25;5209571;28;20144;-71
2022/08/22 02:14:32;;;;;;;12.10;6.55;;;;;;;16.45;80.93;101426.94;5223030;28;20084;-70
2022/08/22 02:17:09;;;;;;;13.63;7.20;;;;;;;16.37;80.96;101429.81;5205065;28;20527;-70
2022/08/22 02:19:58;;;;;;;12.38;7.43;;;;;;;16.45;81.39;101423.47;5222268;28;20092;-71
2022/08/22 02:22:37;;;;;;;12.27;6.68;;;;;;;16.53;81.07;101422.34;5222371;28;20088;-71
2022/08/22 02:25:22;;;;;;;12.07;6.82;;;;;;;16.48;81.33;101424.25;5222783;28;20072;-70
2022/08/22 02:27:58;;;;;;;10.95;6.38;;;;;;;16.45;81.77;101419.06;5222240;28;20084;-71
2022/08/22 02:30:47;;;;;;;13.40;7.90;;;;;;;16.35;81.64;101422.84;5222578;28;20152;-70
2022/08/22 02:33:36;;;;;;;11.50;6.60;;;;;;;16.26;82.01;101423.09;5222528;28;20386;-71
2022/08/22 02:36:40;;;;;;;12.10;7.00;;;;;;;16.31;82.02;101413.31;5222021;28;20103;-70
2022/08/22 02:39:31;;;;;;;;;;;;;;;16.48;80.19;101418.13;5222491;28;20048;-70
2022/08/22 02:42:33;;;;;;;16.20;7.40;;;;;;;16.40;81.63;101415.69;5221503;28;19925;-71
2022/08/22 02:45:23;;;;;;;10.95;6.82;;;;;;;16.21;82.01;101413.56;5221937;28;20030;-71
2022/08/22 02:48:00;;;;;;;13.20;7.68;;;;;;;16.16;82.62;101423.31;5220998;28;20364;-71
2022/08/22 02:50:36;;;;;;;13.25;7.35;;;;;;;16.11;83.21;101414.69;5221579;28;20032;-71
2022/08/22 02:53:37;;;;;;;12.57;6.57;;;;;;;16.23;83.11;101416.16;5222151;28;20030;-71
2022/08/22 02:56:17;;;;;;;12.07;6.60;;;;;;;16.15;83.19;101418.97;5221646;28;20443;-71
2022/08/22 02:58:53;;;;;;;15.10;7.78;;;;;;;16.13;83.55;101412.03;5204169;28;20026;-71
2022/08/22 03:01:28;;;;;;;16.50;7.35;;;;;;;16.12;83.31;101405.06;5221802;28;20088;-71
2022/08/22 03:04:25;;;;;;;10.25;6.82;;;;;;;16.20;83.77;101413.59;5222011;28;20447;-71
2022/08/22 03:07:05;;;;;;;13.52;7.13;;;;;;;16.26;83.52;101407.31;5221796;28;20026;-70
2022/08/22 03:09:57;;;;;;;12.88;8.13;;;;;;;16.09;83.95;101413.88;5221433;28;20034;-69
2022/08/22 03:12:34;;;;;;;17.58;7.50;;;;;;;16.23;84.16;101421.41;5221440;28;20112;-70
2022/08/22 03:15:22;;;;;;;16.27;8.05;;;;;;;16.13;83.99;101412.03;5203283;28;20040;-70
2022/08/22 03:18:20;;;;;;;17.13;8.10;;;;;;;16.09;83.94;101416.50;5221354;28;20034;-70
2022/08/22 03:20:57;;;;;;;13.10;7.60;;;;;;;15.95;84.67;101403.69;5221427;28;20030;-70
2022/08/22 03:23:45;;;;;;;14.02;7.57;;;;;;;15.91;84.71;101411.72;5221449;28;20382;-70
2022/08/22 03:26:26;;;;;;;17.15;7.63;;;;;;;16.03;84.65;101396.50;5221207;28;20098;-70
2022/08/22 03:29:30;;;;;;;12.82;7.80;;;;;;;15.95;84.54;101390.56;5220611;28;20026;-70
2022/08/22 03:32:26;;;;;;;17.25;8.50;;;;;;;15.76;85.24;101387.53;5220394;28;20049;-70
2022/08/22 03:35:02;;;;;;;15.40;8.50;;;;;;;15.67;85.65;101395.63;5219013;28;20042;-70
2022/08/22 03:37:36;;;;;;;16.30;9.05;;;;;;;15.76;85.99;101397.16;5221099;28;20030;-70
2022/08/22 03:40:54;;;;;;;14.63;7.85;;;;;;;15.82;85.27;101392.63;5220691;28;20549;-70
2022/08/22 03:43:45;;;;;;;16.27;8.65;;;;;;;15.74;85.64;101384.03;5221929;28;20463;-71
2022/08/22 03:46:50;;;;;;;13.88;8.98;;;;;;;15.77;85.65;101385.78;5220796;28;20033;-71
2022/08/22 03:49:51;;;;;;;18.50;9.40;;;;;;;15.74;85.61;101389.28;5221018;28;20038;-70
2022/08/22 03:53:06;;;;;;;12.63;9.25;;;;;;;15.74;85.70;101380.56;5222484;28;20065;-74
2022/08/22 03:55:50;;;;;;;14.05;8.45;;;;;;;15.64;86.04;101385.19;5221380;28;20049;-72
2022/08/22 03:58:33;;;;;;;22.77;10.07;;;;;;;15.57;86.33;101378.31;5220610;28;20046;-71
2022/08/22 04:01:04;;;;;;;10.90;8.68;;;;;;;15.53;86.79;101385.44;5221213;28;20067;-71
2022/08/22 04:03:41;;;;;;;19.33;10.10;;;;;;;15.54;86.66;101381.06;5220444;28;20059;-71
2022/08/22 04:06:40;;;;;;;13.77;8.27;;;;;;;15.52;86.56;101380.22;5220352;28;20073;-70
2022/08/22 04:09:48;;;;;;;13.88;8.75;;;;;;;15.37;86.94;101382.28;5219785;28;20072;-71
2022/08/22 04:13:02;;;;;;;14.50;9.77;;;;;;;15.27;87.24;101383.41;5220481;28;20479;-71
2022/08/22 04:16:15;;;;;;;15.23;9.10;;;;;;;15.21;87.48;101387.03;5220351;28;20507;-71
2022/08/22 04:19:37;;;;;;;16.10;8.85;;;;;;;15.22;87.47;101390.53;5219933;28;20038;-72
2022/08/22 04:22:32;;;;;;;14.93;9.20;;;;;;;15.07;88.45;101396.97;5189639;28;20113;-71
2022/08/22 04:25:29;;;;;;;15.15;8.05;;;;;;;15.24;88.29;101401.88;5220288;28;20034;-71
2022/08/22 04:28:08;;;;;;;13.80;8.88;;;;;;;15.24;88.63;101402.72;5220569;28;20034;-71
2022/08/22 04:30:46;;;;;;;17.02;8.95;;;;;;;15.27;88.21;101400.03;5220616;28;20364;-71
2022/08/22 04:33:35;;;;;;;14.98;9.63;;;;;;;15.31;88.75;101406.06;5220376;28;20356;-71
2022/08/22 04:36:25;;;;;;;15.25;8.57;;;;;;;15.38;88.50;101399.78;5220544;28;20061;-70
2022/08/22 04:39:17;;;;;;;14.80;9.60;;;;;;;15.29;88.76;101405.25;5220584;28;20057;-69
2022/08/22 04:42:08;;;;;;;16.43;9.07;;;;;;;15.41;88.63;101397.09;5220119;28;20041;-70
2022/08/22 04:44:46;;;;;;;15.00;8.85;;;;;;;15.25;88.83;101395.72;5220492;28;20029;-70
2022/08/22 04:47:28;;;;;;;16.17;8.88;;;;;;;15.23;88.67;101403.63;5220417;28;20036;-71
2022/08/22 04:50:08;;;;;;;13.80;8.35;;;;;;;15.33;89.03;101399.03;5220099;28;20049;-69
2022/08/22 04:52:57;;;;;;;17.15;9.23;;;;;;;15.41;89.20;101399.72;5220334;28;20026;-70
2022/08/22 04:55:57;;;;;;;18.13;9.63;;;;;;;15.42;88.62;101403.22;5219972;28;20160;-70
2022/08/22 04:58:39;;;;;;;23.33;9.52;;;;;;;15.39;89.15;101416.41;5202904;28;20105;-69
2022/08/22 05:01:22;;;;;;;14.35;8.60;;;;;;;15.55;89.11;101417.78;5219859;28;20088;-71
2022/08/22 05:04:18;;;;;;;14.82;9.48;;;;;;;15.49;89.75;101410.06;5220334;28;20041;-71
2022/08/22 05:06:59;;;;;;;16.63;9.02;;;;;;;15.55;89.30;101412.53;5220083;28;20029;-72
2022/08/22 05:09:34;;;;;;;18.95;9.55;;;;;;;15.63;89.59;101417.59;5220570;28;20487;-71
2022/08/22 05:12:13;;;;;;;15.48;8.63;;;;;;;15.70;89.65;101413.94;5223658;28;20173;-71
2022/08/22 05:15:13;;;;;;;18.25;9.20;;;;;;;15.77;89.15;101420.81;5224086;28;20034;-71
2022/08/22 05:17:48;;;;;;;12.75;8.40;;;;;;;15.73;89.33;101419.13;5223928;28;20168;-71
2022/08/22 05:20:22;;;;;;;14.80;8.70;;;;;;;15.86;89.93;101414.47;5223362;28;20026;-71
2022/08/22 05:23:02;;;;;;;12.60;8.98;;;;;;;15.76;89.53;101415.53;5223334;28;20026;-72
2022/08/22 05:25:36;;;;;;;16.00;8.38;;;;;;;15.81;89.33;101418.94;5223313;28;20033;-70
2022/08/22 05:28:16;;;;;;;15.18;9.98;;;;;;;15.79;89.62;101405.00;5205823;28;20085;-70
2022/08/22 05:30:49;;;;;;;15.60;9.18;;;;;;;15.84;89.83;101416.25;5223612;28;20022;-70
2022/08/22 05:33:29;;;;;;;14.43;9.15;;;;;;;15.87;89.48;101421.44;5223135;28;20034;-70
2022/08/22 05:36:21;;;;;;;12.82;9.27;;;;;;;15.89;90.02;101432.81;5205629;28;20045;-70
2022/08/22 05:38:59;;;;;;;14.40;9.20;;;;;;;15.95;90.54;101429.13;5223030;28;20034;-71
2022/08/22 05:41:35;;;;;;;12.77;8.63;;;;;;;16.09;90.23;101434.06;5223324;28;20057;-70
2022/08/22 05:44:17;;;;;;;16.33;8.82;;;;;;;16.14;89.60;101429.53;5223584;28;20084;-71
2022/08/22 05:46:54;;;;;;;15.17;8.80;;;;;;;16.09;89.73;101432.28;5205227;28;20044;-71
2022/08/22 05:49:48;;;;;;;15.75;8.63;;;;;;;16.04;89.09;101431.53;5223328;28;20046;-72
2022/08/22 05:52:48;;;;;;;15.15;9.48;;;;;;;16.09;88.67;101428.81;5222858;28;20081;-73
2022/08/22 05:55:40;;;;;;;17.20;9.90;;;;;;;16.18;89.05;101431.16;5223205;28;20054;-72
2022/08/22 05:58:50;;;;;;;14.20;9.48;;;;;;;16.22;89.90;101420.53;5205057;28;20034;-72
2022/08/22 06:01:37;;;;;;;16.70;9.60;;;;;;;16.18;89.44;101423.28;5222482;28;20109;-72
2022/08/22 06:04:33;;;;;;;13.80;9.25;;;;;;;16.21;89.46;101418.84;5222804;28;20364;-72
2022/08/22 06:07:24;;;;;;;14.52;10.02;;;;;;;16.33;89.34;101420.25;5222576;28;20395;-72
2022/08/22 06:10:05;;;;;;;21.25;11.15;;;;;;;16.27;88.46;101424.81;5222966;28;20451;-71
2022/08/22 06:12:59;;;;;;;13.77;9.73;;;;;;;16.28;88.86;101423.94;5222686;28;20078;-70
2022/08/22 06:15:49;;;;;;;19.08;10.32;;;;;;;16.39;88.82;101417.47;5222002;28;20050;-71
2022/08/22 06:18:23;;;;;;;12.98;9.40;;;;;;;16.50;89.52;101426.84;5222233;28;20079;-71
2022/08/22 06:21:01;;;;;;;12.43;9.95;;;;;;;16.52;89.63;101433.78;5221961;28;20098;-71
2022/08/22 06:23:43;;;;;;;13.45;10.43;;;;;;;16.55;88.21;101436.34;5222883;28;20148;-71
2022/08/22 06:26:17;;;;;;;19.77;11.20;;;;;;;16.68;89.08;101436.88;5222715;28;20041;-71
2022/08/22 06:28:54;;;;;;;14.32;10.38;;;;;;;16.69;88.47;101430.69;5205020;28;20025;-71
2022/08/22 06:31:31;;;;;;;16.83;10.43;;;;;;;16.81;89.25;101433.88;5222861;28;20052;-71
2022/08/22 06:34:16;;;;;;;16.60;10.50;;;;;;;16.89;89.04;101430.16;5222784;28;20416;-71
2022/08/22 06:36:50;;;;;;;21.75;10.18;;;;;;;16.92;87.68;101434.47;5222252;28;20041;-71
2022/08/22 06:39:30;;;;;;;18.33;9.80;;;;;;;17.01;88.90;101433.34;5222415;28;20021;-71
2022/08/22 06:42:10;;;;;;;16.38;10.85;;;;;;;17.12;89.38;101433.88;5222555;28;20384;-71
2022/08/22 06:45:03;;;;;;;13.48;10.65;;;;;;;17.19;88.44;101443.31;5222022;28;20065;-71
2022/08/22 06:47:47;;;;;;;19.75;11.13;;;;;;;17.22;87.18;101440.59;5222332;28;20038;-71
2022/08/22 06:50:35;;;;;;;16.15;10.02;;;;;;;17.25;86.15;101447.56;5222741;28;20137;-71
2022/08/22 06:53:06;;;;;;;14.98;10.93;;;;;;;17.23;86.99;101439.69;5222453;28;20037;-70
2022/08/22 06:55:45;;;;;;;13.67;9.37;;;;;;;17.21;85.42;101452.06;5222275;28;20037;-71
2022/08/22 06:58:21;;;;;;;17.45;11.07;;;;;;;17.19;86.08;101456.50;5204897;28;20047;-71
2022/08/22 07:00:57;;;;;;;18.77;11.48;;;;;;;17.27;86.75;101457.13;5221999;28;20042;-71
2022/08/22 07:03:33;;;;;;;17.70;12.68;;;;;;;17.29;86.89;101459.72;5203477;28;20112;-71
2022/08/22 07:06:12;;;;;;;15.18;12.13;;;;;;;17.35;87.17;101462.16;5221295;28;20036;-71
2022/08/22 07:08:43;;;;;;;15.00;11.70;;;;;;;17.34;86.87;101467.47;5220979;28;20034;-71
2022/08/22 07:11:31;;;;;;;24.27;12.10;;;;;;;17.38;86.66;101464.72;5221153;28;20440;-71
2022/08/22 07:14:06;;;;;;;17.40;12.18;;;;;;;17.35;87.20;101463.94;5220746;28;20037;-71
2022/08/22 07:16:55;;;;;;;22.10;12.60;;;;;;;17.47;87.26;101463.59;5221009;28;20371;-72
2022/08/22 07:19:35;;;;;;;17.58;13.13;;;;;;;17.53;88.92;101465.16;5221201;28;20033;-71
2022/08/22 07:22:21;;;;;;;19.30;13.27;;;;;;;17.58;87.32;101465.88;5221735;28;20058;-72
2022/08/22 07:24:59;;;;;;;17.40;12.50;;;;;;;17.69;86.51;101466.41;5222036;28;20030;-71
2022/08/22 07:27:53;;;;;;;20.20;12.75;;;;;;;17.81;86.12;101458.09;5221752;28;20029;-71
2022/08/22 07:30:38;;;;;;;21.10;13.00;;;;;;;18.00;87.64;101457.53;5221452;28;20109;-71
2022/08/22 07:33:35;;;;;;;18.27;11.90;;;;;;;18.25;85.98;101459.34;5221631;28;20026;-71
2022/08/22 07:36:23;;;;;;;17.27;12.48;;;;;;;18.55;84.55;101454.78;5221375;28;20071;-73
2022/08/22 07:39:06;;;;;;;17.15;12.50;;;;;;;18.76;82.62;101463.72;5221399;28;20037;-71
2022/08/22 07:42:00;;;;;;;13.48;12.10;;;;;;;19.16;83.29;101456.09;5221244;28;20355;-71
2022/08/22 07:44:44;;;;;;;15.73;12.13;;;;;;;19.42;79.92;101448.03;5220548;28;20096;-71
2022/08/22 07:47:18;;;;;;;14.00;11.68;;;;;;;19.55;77.51;101450.22;5221064;28;20080;-72
2022/08/22 07:49:57;;;;;;;14.60;11.15;;;;;;;19.82;79.58;101433.25;5221779;28;20046;-72
2022/08/22 07:52:39;;;;;;;19.30;9.88;;;;;;;20.07;78.04;101444.59;5221301;28;20360;-72
2022/08/22 07:55:17;;;;;;;13.88;10.82;;;;;;;20.21;74.98;101436.94;5221279;28;20059;-72
2022/08/22 07:57:56;;;;;;;15.55;10.95;;;;;;;20.43;76.56;101442.16;5221726;28;20030;-72
2022/08/22 08:00:29;;;;;;;19.10;9.98;;;;;;;20.62;75.91;101447.47;5203597;28;20383;-72
2022/08/22 08:03:05;;;;;;;16.85;8.57;;;;;;;20.93;76.33;101444.38;5221358;28;20036;-71
2022/08/22 08:05:40;;;;;;;16.20;8.88;;;;;;;21.22;72.90;101439.50;5221408;28;20482;-71
2022/08/22 08:08:24;;;;;;;15.35;7.97;;;;;;;21.38;70.59;101436.09;5220766;28;20032;-72
2022/08/22 08:10:58;;;;;;;13.07;7.82;;;;;;;21.45;71.01;101440.19;5221600;28;20030;-72
2022/08/22 08:13:36;;;;;;;14.98;8.50;;;;;;;21.62;72.01;101431.44;5220536;28;20044;-72
2022/08/22 08:16:15;;;;;;;14.10;7.05;;;;;;;21.47;69.16;101433.88;5220779;28;20045;-72
2022/08/22 08:18:49;;;;;;;16.00;6.55;;;;;;;21.51;68.88;101431.09;5221171;28;20037;-72
2022/08/22 08:21:37;;;;;;;14.02;7.63;;;;;;;21.69;72.47;101432.88;5220759;28;20030;-72
2022/08/22 08:24:14;;;;;;;18.08;6.90;;;;;;;21.62;68.54;101428.78;5220927;28;20121;-72
2022/08/22 08:30:11;;;;;;;10.95;6.57;;;;;;;22.01;67.88;101417.97;5167105;28;20068;-73
2022/08/22 08:32:54;;;;;;;21.45;6.57;;;;;;;22.14;65.66;101417.38;5220926;28;20026;-72
2022/08/22 08:35:30;;;;;;;14.77;6.10;;;;;;;22.08;66.22;101425.63;5220782;28;20034;-72
2022/08/22 08:38:24;;;;;;;11.02;5.40;;;;;;;22.46;66.05;101429.00;5220605;28;20029;-72
2022/08/22 08:41:07;;;;;;;11.15;5.28;;;;;;;22.52;68.15;101431.34;5221188;28;20034;-72
2022/08/22 08:43:55;;;;;;;14.00;6.60;;;;;;;22.63;68.19;101429.91;5221658;28;20026;-72
2022/08/22 08:46:49;;;;;;;12.85;6.07;;;;;;;22.73;68.69;101423.13;5225738;28;20037;-73
2022/08/22 08:49:35;;;;;;;14.63;5.63;;;;;;;22.67;65.56;101427.00;5225922;28;20089;-72
2022/08/22 08:52:39;;;;;;;10.73;5.10;;;;;;;22.74;67.53;101422.22;5224723;28;20188;-73
2022/08/22 08:55:33;;;;;;;9.43;5.15;;;;;;;22.47;63.53;101421.88;5224636;28;20080;-72
2022/08/22 08:58:42;;;;;;;8.40;4.60;;;;;;;22.53;65.83;101422.41;5224675;28;20168;-73
2022/08/22 09:01:37;;;;;;;15.55;4.82;;;;;;;22.35;61.77;101426.06;5224632;28;20060;-72
2022/08/22 09:04:36;;;;;;;11.02;5.20;;;;;;;22.11;62.46;101425.50;5224712;28;20038;-72
2022/08/22 09:07:26;;;;;;;10.23;5.00;;;;;;;22.03;61.88;101417.91;5224608;28;20034;-72
2022/08/22 09:10:28;;;;;;;9.23;4.53;;;;;;;22.18;62.26;101416.25;5224884;28;20034;-72
2022/08/22 09:13:08;;;;;;;10.48;4.43;;;;;;;22.18;64.63;101411.78;5224653;28;20169;-72
2022/08/22 09:16:00;;;;;;;10.70;5.15;;;;;;;22.37;64.60;101418.84;5224308;28;20467;-72
2022/08/22 09:18:55;;;;;;;9.73;4.70;;;;;;;22.07;60.92;101419.44;5206915;28;20034;-73
2022/08/22 09:21:54;;;;;;;11.85;5.25;;;;;;;22.18;62.25;101410.94;5224516;28;20467;-73
2022/08/22 09:24:51;;;;;;;11.35;5.00;;;;;;;22.18;61.00;101405.63;5224296;28;20061;-73
2022/08/22 09:27:32;;;;;;;11.05;4.65;;;;;;;22.37;64.02;101405.56;5224142;28;20060;-73
2022/08/22 09:30:10;;;;;;;10.82;5.45;;;;;;;22.45;66.42;101410.50;5224003;28;20115;-73
2022/08/22 09:32:59;;;;;;;8.38;4.30;;;;;;;22.43;62.29;101410.56;5224121;28;20022;-73
2022/08/22 09:35:57;;;;;;;10.82;4.60;;;;;;;22.80;61.97;101413.03;5224112;28;20025;-73
2022/08/22 09:38:40;;;;;;;17.17;4.28;;;;;;;22.91;63.89;101414.19;5223830;28;20467;-73
2022/08/22 09:41:30;;;;;;;;;;;;;;;23.24;62.65;101413.28;5224237;28;20112;-73
2022/08/22 09:44:10;;;;;;;10.35;4.28;;;;;;;23.03;60.12;101414.44;5223330;28;20004;-74
2022/08/22 09:47:17;;;;;;;9.73;3.65;;;;;;;23.20;61.74;101405.53;5223839;28;20061;-73
2022/08/22 09:50:07;;;;;;;8.68;3.42;;;;;;;23.07;57.32;101413.31;5216524;28;20041;-73
2022/08/22 09:53:04;;;;;;;9.60;3.53;;;;;;;23.42;56.75;101413.19;5224403;28;20040;-73
2022/08/22 09:56:02;;;;;;;9.20;4.10;;;;;;;23.31;57.57;101408.47;5222596;28;20041;-73
2022/08/22 09:58:48;;;;;;;11.98;3.92;;;;;;;23.68;54.26;101409.00;5221193;28;20049;-73
2022/08/22 10:01:59;;;;;;;8.63;3.65;;;;;;;24.09;54.92;101402.25;5224754;28;20041;-73
2022/08/22 10:04:49;;;;;;;12.65;3.58;;;;;;;24.34;54.94;101399.81;5195573;28;20041;-72
2022/08/22 10:07:39;;;;;;;9.88;3.42;;;;;;;24.43;53.55;101395.72;5223528;28;20025;-73
2022/08/22 10:10:39;;;;;;;9.20;4.13;;;;;;;24.71;53.85;101394.00;5223590;28;20459;-74
2022/08/22 10:13:13;;;;;;;11.98;4.30;;;;;;;24.91;55.06;101392.78;5223560;28;20026;-74
2022/08/22 10:15:52;;;;;;;11.82;4.72;;;;;;;24.77;50.32;101390.13;5223248;28;20450;-73
2022/08/22 10:18:37;;;;;;;10.55;4.00;;;;;;;25.08;51.00;101383.66;5222897;28;20391;-74
2022/08/22 10:21:44;;;;;;;12.38;4.20;;;;;;;25.06;51.19;101382.91;5223413;28;20081;-74
2022/08/22 10:24:39;;;;;;;8.25;3.60;;;;;;;25.05;52.24;101384.75;5206980;28;20388;-74
2022/08/22 10:27:16;;;;;;;9.45;4.25;;;;;;;25.79;49.70;101377.25;5223255;28;20061;-75
2022/08/22 10:30:05;;;;;;;8.20;3.92;;;;;;;26.28;50.00;101382.88;5205652;28;20565;-74
2022/08/22 10:32:51;;;;;;;8.65;3.42;;;;;;;26.54;48.84;101378.34;5222898;28;20199;-74
2022/08/22 10:35:31;;;;;;;10.68;4.35;;;;;;;26.66;46.57;101382.00;5223244;28;20064;-74
2022/08/22 10:38:10;;;;;;;13.68;5.63;;;;;;;27.25;46.16;101381.28;5205681;28;20029;-74
2022/08/22 10:41:08;;;;;;;14.23;4.70;;;;;;;27.17;49.66;101372.97;5222722;28;20030;-74
2022/08/22 10:43:54;;;;;;;10.43;3.78;;;;;;;27.09;45.72;101370.84;5191563;28;20129;-74
2022/08/22 10:46:38;;;;;;;15.65;4.18;;;;;;;27.11;47.14;101371.59;5222582;28;20030;-74
2022/08/22 10:49:19;;;;;;;9.10;3.78;;;;;;;27.61;47.24;101364.34;5204896;28;20120;-74
2022/08/22 10:51:59;;;;;;;9.98;3.80;;;;;;;28.18;45.88;101368.00;5205448;28;20030;-74
2022/08/22 10:54:49;;;;;;;7.00;3.05;;;;;;;28.42;43.65;101355.47;5222770;28;20034;-74
2022/08/22 10:57:34;;;;;;;8.70;3.13;;;;;;;28.55;43.21;101359.72;5222288;28;20088;-74
2022/08/22 11:00:10;;;;;;;8.63;3.20;;;;;;;28.36;41.12;101357.66;5223087;28;20076;-75
2022/08/22 11:02:50;;;;;;;13.13;5.15;;;;;;;28.45;42.32;101356.09;5223167;28;20041;-74
2022/08/22 11:05:30;;;;;;;7.10;3.00;;;;;;;28.56;41.93;101353.41;5204217;28;20041;-74
2022/08/22 11:08:59;;;;;;;8.73;3.22;;;;;;;28.79;42.02;101350.72;5221111;28;20040;-74
2022/08/22 11:11:54;;;;;;;8.32;2.90;;;;;;;28.05;42.33;101356.56;5178693;28;20030;-75
2022/08/22 11:14:35;;;;;;;11.27;3.90;;;;;;;27.78;39.29;101359.50;5163090;28;20038;-74
2022/08/22 11:17:49;;;;;;;8.70;3.50;;;;;;;27.81;46.21;101357.44;5212216;28;20436;-74
2022/08/22 11:20:30;;;;;;;6.15;2.90;;;;;;;27.74;44.41;101358.88;5222520;28;20088;-74
2022/08/22 11:23:24;;;;;;;5.97;2.97;;;;;;;28.16;43.41;101350.34;5222014;28;20037;-75
2022/08/22 11:26:43;;;;;;;8.38;3.75;;;;;;;28.37;41.09;101348.66;5221668;28;20030;-74
2022/08/22 11:29:15;;;;;;;11.55;3.70;;;;;;;27.71;40.80;101344.84;5198570;28;20042;-74
2022/08/22 11:31:51;;;;;;;;;;;;;;;28.64;42.27;101352.81;5204401;28;20088;-74
2022/08/22 11:34:32;;;;;;;8.25;3.10;;;;;;;27.43;44.03;101346.97;5203520;28;19909;-73
2022/08/22 11:37:35;;;;;;;8.93;3.35;;;;;;;27.14;44.75;101352.63;5221574;28;20117;-73
2022/08/22 11:40:29;;;;;;;8.88;3.67;;;;;;;27.05;45.12;101348.00;5215660;28;20045;-73
2022/08/22 11:43:27;;;;;;;7.47;3.28;;;;;;;27.05;43.97;101345.31;5221081;28;20487;-74
2022/08/22 11:46:15;;;;;;;8.70;2.63;;;;;;;27.07;46.07;101340.69;5221673;28;20030;-74
2022/08/22 11:49:03;;;;;;;10.02;3.28;;;;;;;27.03;44.42;101336.53;5221055;28;20495;-74
2022/08/22 11:52:04;;;;;;;10.32;2.70;;;;;;;27.13;42.11;101331.34;5222060;28;20030;-74
2022/08/22 11:55:14;;;;;;;7.50;3.05;;;;;;;27.08;43.60;101335.22;5221662;28;20044;-74
2022/08/22 11:58:06;;;;;;;9.18;3.25;;;;;;;27.04;43.63;101333.72;5221151;28;20030;-74
2022/08/22 12:01:10;;;;;;;9.10;3.83;;;;;;;26.85;44.78;101333.38;5221111;28;20092;-74
2022/08/22 12:03:50;;;;;;;9.43;3.63;;;;;;;26.40;46.40;101336.53;5203658;28;20415;-74
2022/08/22 12:06:24;;;;;;;9.63;3.30;;;;;;;26.47;43.48;101334.28;5221098;28;20414;-74
2022/08/22 12:09:26;;;;;;;10.25;3.30;;;;;;;26.59;44.57;101332.56;5221105;28;20033;-74
2022/08/22 12:12:10;;;;;;;9.80;4.05;;;;;;;26.26;45.71;101344.69;5217030;28;20520;-73
2022/08/22 12:14:55;;;;;;;8.27;3.40;;;;;;;26.08;46.68;101337.00;5220959;28;20460;-73
2022/08/22 12:17:43;;;;;;;8.60;3.28;;;;;;;26.08;46.13;101330.81;5203484;28;20378;-73
2022/08/22 12:20:44;;;;;;;8.80;3.65;;;;;;;25.98;44.98;101327.91;5203121;28;20030;-73
2022/08/22 12:23:18;;;;;;;9.63;3.88;;;;;;;25.91;48.01;101326.63;5220690;28;20461;-73
2022/08/22 12:26:24;;;;;;;5.90;2.97;;;;;;;25.96;45.19;101325.34;5220656;28;20033;-73
2022/08/22 12:29:17;;;;;;;8.07;3.38;;;;;;;25.87;47.35;101333.13;5220814;28;20026;-73
2022/08/22 12:32:24;;;;;;;9.32;3.88;;;;;;;25.80;47.75;101333.53;5220556;28;20029;-73
2022/08/22 12:35:11;;;;;;;10.38;3.08;;;;;;;25.62;48.88;101327.63;5221370;28;20057;-74
2022/08/22 12:37:50;;;;;;;7.82;3.78;;;;;;;25.61;46.53;101323.25;5220432;28;20034;-74
2022/08/22 12:40:44;;;;;;;8.25;3.15;;;;;;;25.69;45.57;101322.72;5221106;28;20022;-73
2022/08/22 12:43:37;;;;;;;11.25;3.80;;;;;;;25.77;47.66;101320.38;5220568;28;20481;-74
2022/08/22 12:46:17;;;;;;;8.77;3.63;;;;;;;25.72;47.21;101324.34;5220401;28;20034;-73
2022/08/22 12:48:52;;;;;;;14.23;4.60;;;;;;;25.81;42.34;101321.91;5220851;28;20046;-73
2022/08/22 12:51:35;;;;;;;10.07;4.15;;;;;;;25.88;43.18;101316.13;5220367;28;20034;-74
2022/08/22 12:54:09;;;;;;;12.73;4.32;;;;;;;25.93;45.35;101317.50;5220171;28;20026;-73
2022/08/22 12:56:46;;;;;;;7.30;3.03;;;;;;;26.37;45.67;101310.91;5220686;28;20029;-73